Time;durP1;ratioP1;P1;durP2;ratioP2;P2;SDS_P1;SDS_P2;PMS_P1;PMS_P2;Temp;Humidity;BMP_temperature;BMP_pressure;BME280_temperature;BME280_humidity;BME280_pressure;Samples;Min_cycle;Max_cycle;Signal;HPM_P1;HPM_P2
2021/05/10 00:02:02;;;;;;;6.00;2.65;;;14.60;58.70;;;;;;5045719;28;20513;-82
2021/05/10 00:04:28;;;;;;;6.72;2.70;;;14.60;58.70;;;;;;5027934;28;20025;-82
2021/05/10 00:06:54;;;;;;;6.50;2.65;;;14.60;58.80;;;;;;5029402;28;20094;-82
2021/05/10 00:09:20;;;;;;;8.05;2.55;;;14.50;58.60;;;;;;5012727;28;20037;-81
2021/05/10 00:11:46;;;;;;;6.70;2.67;;;14.50;58.70;;;;;;5029121;28;20061;-82
2021/05/10 00:14:13;;;;;;;5.18;2.63;;;14.40;58.50;;;;;;5025438;28;20055;-83
2021/05/10 00:16:39;;;;;;;5.45;2.28;;;14.50;58.80;;;;;;5042096;28;20098;-82
2021/05/10 00:19:05;;;;;;;5.53;2.38;;;14.40;58.60;;;;;;5018884;28;20025;-83
2021/05/10 00:21:31;;;;;;;6.90;2.78;;;14.40;58.70;;;;;;5028748;28;20486;-83
2021/05/10 00:23:57;;;;;;;11.65;3.17;;;14.40;58.80;;;;;;5046553;28;20021;-83
2021/05/10 00:26:23;;;;;;;4.80;2.58;;;14.40;58.80;;;;;;5028663;28;20091;-84
2021/05/10 00:28:50;;;;;;;4.85;2.08;;;14.40;58.80;;;;;;5021293;28;20034;-84
2021/05/10 00:31:16;;;;;;;4.97;2.17;;;14.30;58.70;;;;;;5008798;28;20367;-83
2021/05/10 00:33:42;;;;;;;4.38;2.55;;;14.30;58.70;;;;;;5033278;28;20026;-85
2021/05/10 00:36:08;;;;;;;5.93;2.80;;;14.30;58.80;;;;;;5045316;28;20439;-83
2021/05/10 00:38:34;;;;;;;6.43;2.45;;;14.30;58.80;;;;;;5023606;28;20034;-83
2021/05/10 00:41:00;;;;;;;5.85;2.38;;;14.20;59.20;;;;;;5025444;28;20099;-82
2021/05/10 00:43:27;;;;;;;4.82;2.33;;;14.20;58.60;;;;;;5014768;28;20021;-83
2021/05/10 00:45:54;;;;;;;5.43;2.25;;;14.20;58.80;;;;;;5028653;28;20033;-83
2021/05/10 00:48:21;;;;;;;7.45;2.70;;;14.20;58.80;;;;;;5028224;28;20148;-82
2021/05/10 00:51:06;;;;;;;5.70;2.72;;;14.10;58.60;;;;;;5029150;28;20518;-84
2021/05/10 00:53:39;;;;;;;11.00;2.70;;;14.10;58.80;;;;;;5029811;28;20029;-85
2021/05/10 00:56:27;;;;;;;9.13;3.05;;;14.10;58.70;;;;;;5028844;28;20102;-85
2021/05/10 00:58:55;;;;;;;6.90;3.17;;;14.10;58.70;;;;;;5011544;28;20037;-82
2021/05/10 01:01:29;;;;;;;7.70;2.25;;;14.10;58.80;;;;;;5025446;28;20401;-81
2021/05/10 01:03:56;;;;;;;5.47;2.50;;;14.10;58.80;;;;;;5018847;28;20037;-83
2021/05/10 01:07:04;;;;;;;7.50;2.65;;;14.10;58.80;;;;;;5025064;28;20034;-82
2021/05/10 01:09:31;;;;;;;5.60;2.42;;;14.00;58.60;;;;;;5000942;28;20037;-83
2021/05/10 01:11:59;;;;;;;7.75;3.25;;;14.00;58.60;;;;;;5012533;28;20034;-83
2021/05/10 01:14:28;;;;;;;6.00;2.20;;;13.90;58.40;;;;;;5028318;28;20044;-84
2021/05/10 01:17:16;;;;;;;6.88;2.90;;;13.90;58.50;;;;;;5028028;28;20099;-83
2021/05/10 01:20:20;;;;;;;5.63;2.05;;;13.90;58.50;;;;;;5026054;28;20049;-83
2021/05/10 01:23:44;;;;;;;4.05;2.20;;;13.90;58.60;;;;;;5013694;28;20212;-84
2021/05/10 01:27:52;;;;;;;4.63;2.35;;;13.90;58.70;;;;;;5007864;28;20038;-87
2021/05/10 01:32:08;;;;;;;8.50;2.28;;;13.80;58.40;;;;;;4882695;29;20033;-83
2021/05/10 01:35:56;;;;;;;5.55;2.67;;;13.80;58.40;;;;;;4917307;29;20047;-84
2021/05/10 01:39:51;;;;;;;4.40;2.55;;;13.70;58.20;;;;;;4940523;29;20045;-83
2021/05/10 01:43:45;;;;;;;6.00;2.38;;;13.70;58.30;;;;;;5008523;28;20475;-84
2021/05/10 01:47:04;;;;;;;5.35;2.45;;;13.70;58.30;;;;;;5027186;28;20049;-83
2021/05/10 01:49:53;;;;;;;3.72;2.10;;;13.70;58.40;;;;;;4997262;28;20045;-83
2021/05/10 01:53:32;;;;;;;6.22;2.90;;;13.60;58.10;;;;;;5005232;28;20117;-84
2021/05/10 01:57:29;;;;;;;4.47;2.55;;;13.60;58.30;;;;;;5032716;28;20048;-83
2021/05/10 02:01:09;;;;;;;6.60;2.35;;;13.50;58.10;;;;;;5051915;28;20044;-83
2021/05/10 02:05:04;;;;;;;6.05;2.40;;;13.50;58.10;;;;;;5053505;28;20489;-83
2021/05/10 02:08:17;;;;;;;6.63;2.55;;;13.50;58.20;;;;;;5053196;28;20571;-83
2021/05/10 02:10:45;;;;;;;7.78;3.25;;;13.40;57.90;;;;;;5053044;28;20037;-83
2021/05/10 02:13:14;;;;;;;6.00;2.45;;;13.40;58.10;;;;;;5051984;28;20036;-83
2021/05/10 02:15:45;;;;;;;7.72;2.50;;;13.40;58.10;;;;;;5051563;28;20114;-82
2021/05/10 02:18:12;;;;;;;7.13;2.28;;;13.40;58.20;;;;;;5051842;28;20396;-82
2021/05/10 02:20:51;;;;;;;6.80;2.92;;;13.30;58.10;;;;;;5051365;28;20032;-82
2021/05/10 02:23:45;;;;;;;5.68;2.58;;;13.30;58.20;;;;;;5036298;28;20118;-82
2021/05/10 02:26:19;;;;;;;3.35;1.90;;;13.30;58.30;;;;;;5068340;28;20141;-83
2021/05/10 02:29:18;;;;;;;6.47;2.55;;;13.30;58.30;;;;;;5052990;28;20138;-83
2021/05/10 02:32:16;;;;;;;6.05;2.10;;;13.30;58.40;;;;;;5035948;28;20102;-82
2021/05/10 02:35:04;;;;;;;5.78;2.70;;;13.20;58.20;;;;;;5051386;28;20044;-82
2021/05/10 02:37:30;;;;;;;4.90;2.40;;;13.20;58.20;;;;;;5051751;28;20488;-85
2021/05/10 02:40:44;;;;;;;6.90;3.08;;;13.20;58.20;;;;;;5052248;28;20044;-85
2021/05/10 02:43:16;;;;;;;6.88;2.63;;;13.20;58.40;;;;;;5052808;28;20033;-85
2021/05/10 02:45:43;;;;;;;6.38;2.55;;;13.10;58.10;;;;;;5051305;28;20039;-85
2021/05/10 02:48:11;;;;;;;6.68;2.25;;;13.20;58.40;;;;;;5018049;28;20523;-83
2021/05/10 02:51:12;;;;;;;6.72;2.53;;;13.20;58.40;;;;;;5047388;28;20481;-85
2021/05/10 02:53:44;;;;;;;7.15;2.60;;;13.10;58.40;;;;;;5051297;28;20476;-83
2021/05/10 02:56:12;;;;;;;6.00;2.47;;;13.10;58.30;;;;;;5052164;28;20040;-81
2021/05/10 02:58:38;;;;;;;5.95;2.60;;;13.10;58.30;;;;;;5033988;28;20050;-82
2021/05/10 03:01:05;;;;;;;6.28;2.88;;;13.10;58.40;;;;;;5051126;28;20119;-83
2021/05/10 03:03:57;;;;;;;7.82;2.58;;;13.10;58.40;;;;;;5051299;28;20059;-85
2021/05/10 03:07:05;;;;;;;5.07;2.53;;;13.10;58.50;;;;;;5051598;28;20040;-85
2021/05/10 03:09:58;;;;;;;5.65;2.22;;;13.00;58.30;;;;;;5051275;28;20033;-84
2021/05/10 03:13:31;;;;;;;8.80;2.85;;;13.00;58.20;;;;;;5051015;28;20048;-84
2021/05/10 03:16:04;;;;;;;7.67;3.37;;;13.00;58.30;;;;;;5051923;28;20040;-84
2021/05/10 03:18:33;;;;;;;6.65;2.97;;;13.00;58.20;;;;;;5034828;28;20036;-83
2021/05/10 03:21:09;;;;;;;6.20;3.13;;;12.90;58.10;;;;;;5034591;28;20048;-82
2021/05/10 03:23:36;;;;;;;6.05;2.40;;;12.90;58.20;;;;;;5050531;28;20044;-84
2021/05/10 03:26:04;;;;;;;7.75;2.50;;;12.90;58.20;;;;;;5034290;28;20025;-84
2021/05/10 03:28:30;;;;;;;5.57;2.70;;;12.90;58.30;;;;;;5033929;28;20040;-83
2021/05/10 03:30:58;;;;;;;10.20;2.75;;;12.90;58.30;;;;;;5033462;28;20531;-82
2021/05/10 03:33:24;;;;;;;5.63;2.78;;;12.90;58.40;;;;;;5016810;28;20429;-83
2021/05/10 03:35:50;;;;;;;5.85;2.47;;;12.80;58.20;;;;;;5017466;28;20068;-80
2021/05/10 03:38:19;;;;;;;4.55;2.33;;;12.80;58.20;;;;;;5034545;28;20060;-85
2021/05/10 03:40:47;;;;;;;6.03;2.65;;;12.80;58.30;;;;;;5050503;28;20047;-83
2021/05/10 03:43:16;;;;;;;6.60;2.42;;;12.80;58.30;;;;;;5048749;28;20032;-86
2021/05/10 03:45:44;;;;;;;7.38;2.75;;;12.80;58.40;;;;;;5033547;28;20029;-83
2021/05/10 03:48:16;;;;;;;6.47;1.75;;;12.80;58.40;;;;;;5032873;28;20115;-83
2021/05/10 03:50:44;;;;;;;8.73;2.33;;;12.80;58.40;;;;;;5049780;28;20047;-84
2021/05/10 03:53:13;;;;;;;5.82;2.30;;;12.80;58.40;;;;;;5050148;28;20029;-84
2021/05/10 03:55:44;;;;;;;8.48;2.92;;;12.80;58.50;;;;;;5034354;28;20067;-83
2021/05/10 03:58:11;;;;;;;3.72;2.28;;;12.80;58.50;;;;;;5034210;28;20395;-86
2021/05/10 04:00:39;;;;;;;7.43;2.85;;;12.80;58.50;;;;;;5034097;28;20055;-87
2021/05/10 04:03:11;;;;;;;3.75;2.25;;;12.80;58.50;;;;;;5050264;28;20102;-86
2021/05/10 04:05:59;;;;;;;8.10;2.60;;;12.80;58.50;;;;;;5051326;28;20037;-86
2021/05/10 04:14:55;;;;;;;4.68;2.05;;;12.80;58.40;;;;;;5051596;28;20025;-85
2021/05/10 04:17:29;;;;;;;4.38;1.95;;;12.80;58.50;;;;;;5051694;28;20033;-85
2021/05/10 04:19:55;;;;;;;5.55;2.53;;;12.80;58.40;;;;;;5033387;28;20035;-85
2021/05/10 04:22:24;;;;;;;7.30;2.22;;;12.80;58.40;;;;;;5033339;28;20033;-83
2021/05/10 04:24:50;;;;;;;3.80;2.40;;;12.80;58.40;;;;;;5033698;28;20037;-85
2021/05/10 04:27:17;;;;;;;5.90;1.83;;;12.80;58.50;;;;;;5017398;28;20036;-84
2021/05/10 04:29:43;;;;;;;6.20;2.25;;;12.80;58.50;;;;;;5033421;28;20071;-85
2021/05/10 04:32:11;;;;;;;8.48;2.83;;;12.80;58.50;;;;;;5017040;28;20377;-84
2021/05/10 04:34:57;;;;;;;9.27;3.13;;;12.80;58.50;;;;;;5033124;28;20120;-85
2021/05/10 04:37:44;;;;;;;6.25;2.42;;;12.80;58.50;;;;;;5063232;28;20518;-84
2021/05/10 04:40:32;;;;;;;6.40;2.35;;;12.80;58.40;;;;;;5033745;28;20044;-88
2021/05/10 04:43:54;;;;;;;6.68;2.80;;;12.80;58.50;;;;;;5051656;28;20071;-90
2021/05/10 04:47:18;;;;;;;6.97;2.28;;;12.80;58.30;;;;;;5053252;28;20052;-83
2021/05/10 04:51:15;;;;;;;7.93;2.10;;;12.80;58.30;;;;;;5029760;28;20059;-83
2021/05/10 04:53:47;;;;;;;4.90;2.67;;;12.80;58.30;;;;;;5020039;28;20049;-81
2021/05/10 04:56:15;;;;;;;7.78;2.08;;;12.80;58.30;;;;;;5013514;28;20038;-85
2021/05/10 04:58:42;;;;;;;4.45;2.28;;;12.80;58.40;;;;;;5013502;28;20030;-82
2021/05/10 05:01:20;;;;;;;8.93;3.28;;;12.80;58.40;;;;;;5014424;28;20069;-87
2021/05/10 05:03:50;;;;;;;3.67;1.63;;;12.80;58.50;;;;;;5020658;28;20137;-86
2021/05/10 05:06:17;;;;;;;5.28;2.55;;;12.80;58.50;;;;;;5029206;28;20045;-85
2021/05/10 05:08:50;;;;;;;5.88;2.35;;;12.70;58.30;;;;;;5021267;28;20038;-85
2021/05/10 05:11:16;;;;;;;4.47;1.85;;;12.70;58.30;;;;;;5030718;28;20226;-87
2021/05/10 05:13:42;;;;;;;5.75;2.60;;;12.70;58.30;;;;;;5030283;28;20026;-86
2021/05/10 05:16:08;;;;;;;5.70;2.33;;;12.70;58.30;;;;;;5028839;28;20072;-85
2021/05/10 05:18:34;;;;;;;7.15;2.45;;;12.70;58.30;;;;;;5019987;28;20172;-87
2021/05/10 05:21:00;;;;;;;5.40;2.38;;;12.80;58.50;;;;;;5046342;28;20029;-84
2021/05/10 05:23:28;;;;;;;5.10;2.53;;;12.80;58.50;;;;;;5036360;28;20220;-86
2021/05/10 05:25:59;;;;;;;4.22;2.05;;;12.80;58.60;;;;;;5030131;28;20165;-86
2021/05/10 05:28:27;;;;;;;6.22;2.25;;;12.80;58.60;;;;;;5029354;28;20110;-85
2021/05/10 05:30:54;;;;;;;4.53;2.10;;;12.80;58.50;;;;;;5028674;28;20037;-87
2021/05/10 05:33:21;;;;;;;7.55;3.00;;;12.90;58.70;;;;;;5040203;28;20124;-86
2021/05/10 05:35:47;;;;;;;6.32;2.88;;;12.90;58.60;;;;;;5048660;28;20041;-85
2021/05/10 05:38:13;;;;;;;6.13;2.55;;;12.90;58.60;;;;;;5049622;28;20036;-86
2021/05/10 05:40:40;;;;;;;6.25;2.30;;;13.00;58.80;;;;;;5032213;28;20396;-86
2021/05/10 05:43:10;;;;;;;8.15;3.25;;;13.00;58.80;;;;;;5038380;28;20026;-83
2021/05/10 05:45:39;;;;;;;6.00;2.78;;;13.10;59.40;;;;;;5029562;28;20056;-84
2021/05/10 05:48:07;;;;;;;8.75;2.10;;;13.10;58.80;;;;;;5034200;28;20049;-85
2021/05/10 05:50:34;;;;;;;4.72;2.67;;;13.10;58.80;;;;;;5049094;28;20120;-84
2021/05/10 05:53:00;;;;;;;5.30;2.60;;;13.20;58.90;;;;;;5040179;28;20042;-84
2021/05/10 05:55:28;;;;;;;6.65;2.75;;;13.30;59.10;;;;;;5011223;28;20112;-84
2021/05/10 05:57:54;;;;;;;5.28;2.25;;;13.30;59.10;;;;;;5028911;28;20030;-89
2021/05/10 06:00:21;;;;;;;5.38;2.13;;;13.40;59.30;;;;;;5029538;28;20076;-82
2021/05/10 06:02:47;;;;;;;6.68;2.40;;;13.50;59.40;;;;;;5035035;28;20119;-84
2021/05/10 06:05:14;;;;;;;5.47;2.22;;;13.60;59.50;;;;;;5047251;28;20462;-84
2021/05/10 06:07:44;;;;;;;8.25;2.70;;;13.70;59.70;;;;;;5047718;28;20033;-82
2021/05/10 06:10:13;;;;;;;6.45;2.58;;;13.70;59.60;;;;;;5048063;28;20064;-79
2021/05/10 06:12:40;;;;;;;7.40;3.20;;;13.90;60.20;;;;;;5048305;28;20049;-79
2021/05/10 06:15:07;;;;;;;14.38;3.53;;;14.10;61.20;;;;;;5026575;28;20033;-80
2021/05/10 06:17:35;;;;;;;8.10;2.97;;;14.30;62.00;;;;;;5028488;28;20079;-80
2021/05/10 06:20:07;;;;;;;12.02;3.95;;;14.50;62.60;;;;;;5027131;28;20029;-80
2021/05/10 06:22:35;;;;;;;11.25;3.47;;;14.70;62.90;;;;;;5013176;28;20033;-78
2021/05/10 06:25:01;;;;;;;7.55;3.38;;;14.90;63.30;;;;;;5028385;28;20099;-78
2021/05/10 06:27:27;;;;;;;15.60;3.25;;;15.20;64.00;;;;;;5029252;28;20040;-82
2021/05/10 06:29:53;;;;;;;13.57;3.83;;;15.40;64.30;;;;;;5021924;28;20029;-78
2021/05/10 06:32:19;;;;;;;18.90;4.75;;;15.60;64.50;;;;;;5028348;28;20036;-78
2021/05/10 06:34:45;;;;;;;12.25;3.95;;;15.80;64.80;;;;;;5029730;28;20385;-79
2021/05/10 06:37:18;;;;;;;11.15;3.08;;;15.90;65.10;;;;;;5030019;28;20044;-78
2021/05/10 06:39:44;;;;;;;14.00;3.95;;;16.00;65.30;;;;;;5027821;28;20029;-78
2021/05/10 06:42:10;;;;;;;14.88;4.15;;;16.10;65.60;;;;;;5010414;28;20043;-80
2021/05/10 06:44:36;;;;;;;10.10;4.40;;;16.20;65.30;;;;;;5009940;28;20025;-80
2021/05/10 06:47:02;;;;;;;9.27;3.22;;;16.20;65.00;;;;;;5009728;28;20026;-79
2021/05/10 06:49:28;;;;;;;15.02;3.05;;;16.30;64.50;;;;;;5023360;28;20032;-80
2021/05/10 06:51:54;;;;;;;7.70;3.10;;;16.40;64.60;;;;;;5043161;28;20029;-81
2021/05/10 06:54:20;;;;;;;9.77;2.67;;;16.60;65.00;;;;;;5028529;28;20037;-81
2021/05/10 06:56:46;;;;;;;10.90;2.92;;;16.80;65.30;;;;;;5009854;28;20038;-80
2021/05/10 06:59:12;;;;;;;10.93;2.75;;;17.10;65.30;;;;;;5026398;28;20060;-80
2021/05/10 07:01:38;;;;;;;9.68;3.35;;;17.40;65.30;;;;;;5027576;28;20431;-81
2021/05/10 07:04:04;;;;;;;8.90;3.42;;;17.70;65.10;;;;;;5023994;28;20499;-80
2021/05/10 07:06:30;;;;;;;7.00;2.50;;;17.90;64.90;;;;;;5026066;28;20496;-81
2021/05/10 07:08:57;;;;;;;6.47;2.67;;;18.10;64.90;;;;;;5029950;28;20480;-81
2021/05/10 07:11:23;;;;;;;9.07;2.60;;;18.30;64.60;;;;;;5029191;28;20040;-80
2021/05/10 07:13:49;;;;;;;9.10;2.47;;;18.40;64.40;;;;;;5029423;28;20415;-80
2021/05/10 07:16:15;;;;;;;6.85;2.72;;;18.40;64.10;;;;;;5029548;28;20135;-80
2021/05/10 07:18:42;;;;;;;9.02;2.55;;;18.60;64.20;;;;;;5045160;28;20141;-82
2021/05/10 07:21:08;;;;;;;13.38;3.60;;;18.80;64.30;;;;;;5028775;28;20134;-79
2021/05/10 07:23:35;;;;;;;16.75;4.28;;;19.10;64.30;;;;;;5046871;28;20203;-81
2021/05/10 07:26:01;;;;;;;14.63;3.58;;;19.30;63.50;;;;;;5029148;28;20025;-81
2021/05/10 07:28:27;;;;;;;18.50;4.07;;;19.50;62.90;;;;;;5025124;28;20033;-81
2021/05/10 07:30:53;;;;;;;17.77;4.22;;;19.80;62.80;;;;;;5009239;28;20021;-81
2021/05/10 07:33:19;;;;;;;13.30;3.63;;;20.00;62.30;;;;;;5027790;28;20393;-82
2021/05/10 07:35:45;;;;;;;16.25;4.35;;;20.20;61.80;;;;;;5028830;28;20054;-80
2021/05/10 07:38:12;;;;;;;11.55;3.97;;;20.50;62.10;;;;;;5029091;28;20033;-81
2021/05/10 07:40:39;;;;;;;6.22;2.33;;;20.80;62.00;;;;;;5029229;28;20040;-81
2021/05/10 07:43:06;;;;;;;7.80;3.33;;;21.30;62.10;;;;;;5029211;28;20025;-81
2021/05/10 07:45:33;;;;;;;10.23;3.40;;;21.70;61.70;;;;;;5045022;28;20112;-81
2021/05/10 07:48:00;;;;;;;12.52;2.97;;;22.00;61.60;;;;;;5041526;28;20053;-81
2021/05/10 07:50:27;;;;;;;10.00;3.10;;;22.10;61.00;;;;;;5025919;28;20026;-82
2021/05/10 07:52:54;;;;;;;9.65;3.22;;;22.10;60.60;;;;;;5032907;28;20228;-82
2021/05/10 07:55:21;;;;;;;5.93;1.88;;;22.00;60.30;;;;;;5029150;28;20044;-82
2021/05/10 07:57:47;;;;;;;5.95;2.28;;;21.80;59.90;;;;;;5045334;28;20021;-80
2021/05/10 08:00:21;;;;;;;9.40;2.63;;;21.70;59.90;;;;;;5029600;28;20025;-82
2021/05/10 08:02:50;;;;;;;8.13;2.80;;;21.50;59.60;;;;;;5012994;28;20037;-81
2021/05/10 08:05:16;;;;;;;7.75;2.85;;;21.30;59.40;;;;;;5029464;28;20033;-81
2021/05/10 08:07:42;;;;;;;7.20;2.67;;;21.20;59.50;;;;;;5028941;28;20036;-80
2021/05/10 08:10:09;;;;;;;8.02;3.15;;;21.00;59.30;;;;;;5028542;28;20033;-79
2021/05/10 08:12:36;;;;;;;7.05;2.42;;;20.90;59.30;;;;;;5040118;28;20056;-80
2021/05/10 08:15:03;;;;;;;9.07;2.65;;;20.70;59.10;;;;;;5009176;28;20033;-79
2021/05/10 08:17:32;;;;;;;7.63;2.97;;;20.50;58.90;;;;;;5009457;28;20124;-81
2021/05/10 08:19:58;;;;;;;9.10;2.92;;;20.40;59.00;;;;;;5031501;28;20308;-81
2021/05/10 08:22:24;;;;;;;8.00;2.92;;;20.30;59.10;;;;;;5012717;28;20076;-81
2021/05/10 08:24:50;;;;;;;8.13;2.63;;;20.30;59.20;;;;;;5029881;28;20069;-83
2021/05/10 08:27:17;;;;;;;8.77;2.17;;;20.50;59.70;;;;;;5013725;28;20064;-87
2021/05/10 08:30:20;;;;;;;6.80;2.70;;;20.80;59.90;;;;;;5029918;28;20404;-85
2021/05/10 08:32:58;;;;;;;5.95;2.65;;;21.10;59.50;;;;;;5029191;28;20039;-84
2021/05/10 08:35:26;;;;;;;7.43;2.25;;;21.30;59.20;;;;;;4998098;28;20489;-83
2021/05/10 08:37:52;;;;;;;8.70;2.60;;;21.20;58.80;;;;;;5029187;28;20092;-82
2021/05/10 08:40:18;;;;;;;6.40;2.20;;;21.20;58.80;;;;;;5030162;28;20176;-84
2021/05/10 08:42:44;;;;;;;6.00;2.65;;;21.10;58.80;;;;;;5028580;28;20026;-82
2021/05/10 08:45:20;;;;;;;7.20;2.45;;;21.10;58.80;;;;;;5012054;28;20041;-83
2021/05/10 08:47:47;;;;;;;7.20;2.67;;;21.30;59.10;;;;;;5014466;28;20437;-83
2021/05/10 08:50:14;;;;;;;5.22;2.45;;;21.60;59.10;;;;;;5050384;28;20163;-85
2021/05/10 08:52:42;;;;;;;6.32;2.08;;;21.70;58.90;;;;;;5033014;28;20393;-85
2021/05/10 08:55:08;;;;;;;4.55;1.83;;;21.80;58.80;;;;;;5032767;28;20499;-85
2021/05/10 08:57:55;;;;;;;7.15;2.10;;;21.90;58.70;;;;;;5031099;28;20120;-86
2021/05/10 09:01:52;;;;;;;5.78;2.55;;;22.00;58.60;;;;;;5029754;28;20030;-85
2021/05/10 09:06:28;;;;;;;4.20;1.83;;;21.90;58.60;;;;;;5005821;28;20033;-86
2021/05/10 09:14:34;;;;;;;4.73;2.40;;;22.50;59.20;;;;;;4910849;29;20047;-85
2021/05/10 09:17:00;;;;;;;3.90;1.95;;;22.80;59.30;;;;;;4917327;29;20146;-86
2021/05/10 09:19:45;;;;;;;4.03;1.88;;;23.00;59.90;;;;;;4941421;29;20122;-82
2021/05/10 09:22:11;;;;;;;5.32;1.58;;;23.20;59.10;;;;;;4932524;29;20039;-82
2021/05/10 09:24:49;;;;;;;5.30;2.15;;;23.30;59.00;;;;;;4948335;29;20415;-81
2021/05/10 09:27:22;;;;;;;3.90;1.70;;;23.30;58.80;;;;;;4948964;29;20058;-83
2021/05/10 09:29:53;;;;;;;3.90;1.80;;;23.30;58.90;;;;;;4934297;28;20475;-81
2021/05/10 09:33:07;;;;;;;2.88;1.60;;;23.50;59.10;;;;;;4936370;28;20247;-83
2021/05/10 09:35:58;;;;;;;2.78;1.30;;;23.50;58.90;;;;;;4968102;28;20105;-83
2021/05/10 09:38:29;;;;;;;3.30;1.65;;;23.80;59.70;;;;;;4942452;28;20034;-83
2021/05/10 09:41:01;;;;;;;3.58;1.45;;;24.10;59.20;;;;;;5006246;28;20065;-84
2021/05/10 09:43:29;;;;;;;3.13;1.70;;;24.20;59.10;;;;;;5006377;28;20034;-82
2021/05/10 09:45:56;;;;;;;3.42;1.80;;;24.40;59.10;;;;;;4990799;28;20030;-82
2021/05/10 09:48:32;;;;;;;5.80;1.92;;;24.40;58.60;;;;;;5006565;28;20124;-82
2021/05/10 09:51:07;;;;;;;3.67;1.40;;;24.30;58.40;;;;;;5006285;28;20132;-82
2021/05/10 09:53:45;;;;;;;4.80;2.15;;;24.20;58.30;;;;;;4986913;28;20042;-81
2021/05/10 09:56:35;;;;;;;4.22;1.55;;;24.10;58.20;;;;;;4986803;28;20097;-81
2021/05/10 09:59:04;;;;;;;2.38;1.27;;;24.00;58.30;;;;;;4996880;28;20087;-81
2021/05/10 10:01:48;;;;;;;2.83;1.65;;;23.70;58.00;;;;;;5048701;28;20033;-82
2021/05/10 10:04:19;;;;;;;5.82;1.77;;;23.50;57.90;;;;;;5047347;28;20033;-82
2021/05/10 10:06:46;;;;;;;8.02;1.77;;;23.30;57.80;;;;;;5046684;28;20033;-83
2021/05/10 10:09:12;;;;;;;4.05;1.63;;;23.20;58.00;;;;;;5030416;28;20053;-83
2021/05/10 10:11:38;;;;;;;4.53;2.08;;;23.00;57.80;;;;;;5030324;28;20072;-82
2021/05/10 10:14:04;;;;;;;5.13;1.98;;;22.90;57.80;;;;;;5030288;28;20025;-81
2021/05/10 10:16:33;;;;;;;4.05;1.80;;;22.70;57.60;;;;;;5046491;28;20135;-83
2021/05/10 10:19:06;;;;;;;4.25;1.77;;;22.60;57.60;;;;;;5030442;28;20420;-82
2021/05/10 10:21:35;;;;;;;3.92;1.58;;;22.40;57.50;;;;;;5030819;28;20033;-82
2021/05/10 10:24:03;;;;;;;4.68;1.50;;;22.30;57.60;;;;;;5029275;28;20036;-82
2021/05/10 10:26:30;;;;;;;7.60;1.55;;;22.10;57.50;;;;;;5046750;28;20049;-81
2021/05/10 10:28:57;;;;;;;3.95;1.70;;;22.00;57.60;;;;;;5046845;28;20123;-81
2021/05/10 10:31:29;;;;;;;3.53;1.55;;;22.00;57.80;;;;;;5029599;28;20025;-82
2021/05/10 10:34:03;;;;;;;4.05;1.67;;;22.10;58.10;;;;;;5048062;28;20029;-81
2021/05/10 10:36:38;;;;;;;4.30;1.98;;;22.30;58.20;;;;;;5047551;28;20037;-82
2021/05/10 10:39:12;;;;;;;2.80;1.48;;;22.50;58.30;;;;;;5048499;28;20072;-85
2021/05/10 10:41:52;;;;;;;;;;;22.70;58.30;;;;;;5048497;28;20043;-82
2021/05/10 10:44:52;;;;;;;3.83;1.20;;;22.90;58.30;;;;;;5048576;28;20019;-84
2021/05/10 10:47:44;;;;;;;6.57;1.83;;;23.00;58.30;;;;;;5047403;28;20140;-79
2021/05/10 10:50:18;;;;;;;3.95;1.92;;;23.10;58.00;;;;;;5046699;28;20021;-82
2021/05/10 10:52:48;;;;;;;5.07;2.00;;;23.20;58.00;;;;;;5047525;28;20033;-83
2021/05/10 10:55:27;;;;;;;4.20;1.63;;;23.20;57.80;;;;;;5030708;28;20603;-83
2021/05/10 10:58:12;;;;;;;3.05;1.73;;;23.30;57.90;;;;;;5047657;28;20064;-83
2021/05/10 11:01:18;;;;;;;3.33;1.60;;;23.40;57.90;;;;;;5047075;28;20087;-82
2021/05/10 11:03:46;;;;;;;4.68;2.03;;;23.50;58.10;;;;;;5027875;28;20033;-83
2021/05/10 11:06:12;;;;;;;5.47;1.60;;;23.60;58.10;;;;;;5013624;28;20087;-83
2021/05/10 11:08:47;;;;;;;5.70;1.88;;;23.70;58.20;;;;;;5046391;28;20025;-83
2021/05/10 11:11:32;;;;;;;4.97;2.05;;;23.80;58.10;;;;;;5029825;28;20033;-83
2021/05/10 11:13:59;;;;;;;2.75;1.55;;;24.00;58.40;;;;;;5030362;28;20233;-83
2021/05/10 11:16:48;;;;;;;5.13;1.70;;;24.10;58.30;;;;;;5048411;28;20492;-82
2021/05/10 11:19:29;;;;;;;4.85;1.75;;;24.20;58.30;;;;;;5027645;28;20219;-83
2021/05/10 11:21:55;;;;;;;4.18;1.83;;;24.30;58.40;;;;;;5045816;28;20112;-82
2021/05/10 11:24:33;;;;;;;3.88;1.45;;;24.40;58.50;;;;;;5030165;28;20030;-82
2021/05/10 11:27:02;;;;;;;4.90;1.33;;;24.50;58.40;;;;;;5011333;28;20049;-83
2021/05/10 11:29:29;;;;;;;6.57;2.00;;;24.60;58.30;;;;;;5021066;28;20037;-82
2021/05/10 11:33:01;;;;;;;3.03;1.50;;;24.50;58.10;;;;;;5028585;28;20029;-84
2021/05/10 11:49:41;;;;;;;4.45;1.60;;;24.10;58.30;;;;;;5046978;28;20091;-86
2021/05/10 11:53:49;;;;;;;3.42;1.73;;;24.20;58.30;;;;;;5004119;28;20161;-83
2021/05/10 12:03:06;;;;;;;4.50;1.83;;;24.40;58.20;;;;;;4946661;29;20046;-83
2021/05/10 12:06:54;;;;;;;2.90;1.42;;;24.50;58.20;;;;;;4946032;29;20086;-84
2021/05/10 12:10:21;;;;;;;4.18;1.83;;;24.60;58.10;;;;;;4934229;29;20043;-85
2021/05/10 12:13:42;;;;;;;4.20;1.63;;;24.80;58.30;;;;;;4929783;29;20047;-85
2021/05/10 12:17:18;;;;;;;2.85;1.25;;;24.90;58.20;;;;;;4945559;29;20070;-84
2021/05/10 12:25:27;;;;;;;3.58;1.60;;;25.10;58.10;;;;;;4915529;29;20396;-84
2021/05/10 12:29:49;;;;;;;4.72;1.45;;;25.20;58.00;;;;;;4960395;28;20222;-86
2021/05/10 12:33:37;;;;;;;2.67;1.25;;;25.20;57.70;;;;;;5027919;28;20090;-84
2021/05/10 12:36:43;;;;;;;4.38;1.48;;;25.20;57.80;;;;;;5030133;28;20059;-84
2021/05/10 12:39:13;;;;;;;3.10;1.38;;;25.20;57.90;;;;;;5043764;28;20048;-84
2021/05/10 12:41:39;;;;;;;3.45;1.65;;;25.30;57.80;;;;;;5043571;28;20033;-85
2021/05/10 12:44:16;;;;;;;3.35;1.67;;;25.40;57.70;;;;;;5043873;28;20025;-84
2021/05/10 12:47:24;;;;;;;2.95;1.30;;;25.60;57.50;;;;;;5026464;28;20079;-87
2021/05/10 12:54:56;;;;;;;9.52;1.73;;;25.70;57.00;;;;;;4989717;28;20029;-85
2021/05/10 12:58:13;;;;;;;4.80;1.80;;;25.90;57.10;;;;;;5027669;28;20091;-85
2021/05/10 13:01:34;;;;;;;2.55;1.30;;;26.10;56.90;;;;;;5043424;28;20057;-84
2021/05/10 13:04:06;;;;;;;3.83;1.30;;;26.30;56.70;;;;;;5042192;28;20048;-84
2021/05/10 13:06:40;;;;;;;4.75;1.55;;;26.40;56.40;;;;;;5030879;28;20037;-83
2021/05/10 13:09:29;;;;;;;3.75;1.40;;;26.60;56.20;;;;;;5032292;28;20373;-85
2021/05/10 13:12:01;;;;;;;2.60;1.48;;;26.70;56.00;;;;;;5048439;28;20029;-84
2021/05/10 13:14:35;;;;;;;3.78;1.30;;;26.90;55.80;;;;;;5032210;28;20496;-85
2021/05/10 13:17:43;;;;;;;3.78;1.50;;;27.10;55.70;;;;;;5031948;28;20538;-84
2021/05/10 13:42:45;;;;;;;3.05;1.60;;;28.40;54.30;;;;;;4948201;29;20833;-85
2021/05/10 13:50:25;;;;;;;3.08;1.73;;;28.40;54.20;;;;;;4968616;28;20915;-83
2021/05/10 13:54:09;;;;;;;5.07;1.73;;;28.50;54.00;;;;;;4967295;28;20039;-84
2021/05/10 13:56:41;;;;;;;3.78;1.45;;;28.50;53.70;;;;;;4967227;28;20050;-83
2021/05/10 13:59:07;;;;;;;4.88;1.30;;;28.40;53.70;;;;;;4951156;28;20038;-83
2021/05/10 14:01:33;;;;;;;5.22;2.03;;;28.40;53.70;;;;;;4970643;28;20124;-85
2021/05/10 14:04:00;;;;;;;5.03;2.47;;;28.30;53.50;;;;;;5029770;28;20094;-83
2021/05/10 14:06:26;;;;;;;4.13;1.75;;;28.20;53.50;;;;;;5029355;28;20079;-85
2021/05/10 14:08:53;;;;;;;3.88;1.77;;;28.20;53.70;;;;;;5045652;28;20119;-84
2021/05/10 14:11:19;;;;;;;5.75;1.90;;;28.20;53.60;;;;;;5012579;28;20127;-84
2021/05/10 14:13:45;;;;;;;4.90;2.05;;;28.30;53.50;;;;;;5029809;28;20025;-85
2021/05/10 14:16:13;;;;;;;3.88;1.80;;;28.20;53.40;;;;;;5047526;28;20045;-83
2021/05/10 14:18:41;;;;;;;3.97;1.95;;;28.20;53.60;;;;;;5046100;28;20063;-83
2021/05/10 14:23:52;;;;;;;5.50;2.40;;;28.40;53.50;;;;;;5035384;28;20037;-87
2021/05/10 14:26:18;;;;;;;3.33;1.60;;;28.50;53.30;;;;;;5027379;28;20519;-85
2021/05/10 14:28:45;;;;;;;4.28;2.10;;;28.50;53.30;;;;;;5009908;28;20036;-85
2021/05/10 14:31:12;;;;;;;5.10;2.33;;;28.60;53.20;;;;;;5028973;28;20523;-85
2021/05/10 14:33:39;;;;;;;6.57;2.17;;;28.70;53.20;;;;;;5039157;28;20029;-85
2021/05/10 14:36:06;;;;;;;5.40;2.30;;;28.90;53.10;;;;;;5047679;28;20037;-86
2021/05/10 14:38:34;;;;;;;4.80;2.60;;;29.00;52.90;;;;;;5048690;28;20029;-86
2021/05/10 14:41:03;;;;;;;4.80;2.40;;;29.00;52.70;;;;;;5031956;28;20123;-85
2021/05/10 14:43:36;;;;;;;4.38;2.08;;;29.00;52.70;;;;;;5046758;28;20123;-85
2021/05/10 14:46:03;;;;;;;3.20;1.67;;;29.00;52.50;;;;;;5030184;28;20060;-86
2021/05/10 14:48:29;;;;;;;4.22;2.13;;;29.00;52.60;;;;;;5030288;28;20103;-84
2021/05/10 14:50:55;;;;;;;4.45;1.98;;;29.00;52.60;;;;;;5047686;28;20392;-85
2021/05/10 14:53:22;;;;;;;4.47;2.00;;;29.00;52.50;;;;;;5037657;28;20515;-86
2021/05/10 14:55:50;;;;;;;4.53;2.22;;;29.00;52.40;;;;;;5026665;28;20045;-87
2021/05/10 14:58:17;;;;;;;5.43;2.05;;;28.90;52.40;;;;;;5026980;28;20099;-85